You are not logged in, Click here to log in
安托法加斯塔塞羅莫雷諾國際機場ANF / SCFA 安托法加斯塔,智利
ICAO: SCFA Country: 安托法加斯塔,智利
Latitude: -23.4445 Longitude: -70.4451
Total Arrivals: 1 Total Departures: 1
Latest Arrival: H2164 (SCSE-SCFA)Stone. Chang Latest Departure: LA1250 (SCFA-SCSE)Stone. Chang
Scenery:
METAR : SCFA 092200Z 20014KT 9999 SCT017 19/13 Q1013 NOSIG

安托法加斯塔塞羅莫雷諾國際機場ANF

You are accessing this site from IP address 35.170.81.210. Virtual Airline. CMS by phpVMS.Website designed by Zumeweb and edited by Theo Bearman.
There is 0 User(s) Online: | and 6 Guest(s) Online.
All information on this site is for fight simulation purposes only. This site is for flight logging for pilots of Virtual Airline&模擬飛行論壇 FlySim only.